createdAt,value
2023-09-29T00:01:40.152Z,97.13
2023-09-29T00:04:07.284Z,97.64
2023-09-29T00:06:34.601Z,98.78
2023-09-29T00:09:02.304Z,99.08
2023-09-29T00:11:32.341Z,100.00
2023-09-29T00:13:59.200Z,99.45
2023-09-29T00:16:25.879Z,99.55
2023-09-29T00:18:52.458Z,99.84
2023-09-29T00:21:19.092Z,100.00
2023-09-29T00:23:45.735Z,100.00
2023-09-29T00:26:12.286Z,99.08
2023-09-29T00:28:38.805Z,97.83
2023-09-29T00:31:07.390Z,96.46
2023-09-29T00:33:34.705Z,94.46
2023-09-29T00:36:01.612Z,94.17
2023-09-29T00:38:28.402Z,92.46
2023-09-29T00:40:55.106Z,90.19
2023-09-29T00:43:22.698Z,88.48
2023-09-29T00:45:49.653Z,88.39
2023-09-29T00:48:16.650Z,88.18
2023-09-29T00:50:46.280Z,88.13
2023-09-29T00:53:15.679Z,87.78
2023-09-29T00:55:45.625Z,88.40
2023-09-29T00:58:14.210Z,88.69
2023-09-29T01:00:42.602Z,89.95
2023-09-29T01:03:12.534Z,89.64
2023-09-29T01:05:48.231Z,90.02
2023-09-29T01:08:21.626Z,91.22
2023-09-29T01:10:50.081Z,91.26
2023-09-29T01:13:17.882Z,91.57
2023-09-29T01:15:44.771Z,90.97
2023-09-29T01:18:11.887Z,91.65
2023-09-29T01:20:41.977Z,92.69
2023-09-29T01:23:09.550Z,92.92
2023-09-29T01:25:37.503Z,93.21
2023-09-29T01:28:09.401Z,93.47
2023-09-29T01:30:37.558Z,94.01
2023-09-29T01:33:04.541Z,94.21
2023-09-29T01:35:31.179Z,94.61
2023-09-29T01:38:01.661Z,94.75
2023-09-29T01:40:29.433Z,94.91
2023-09-29T01:42:57.890Z,94.30
2023-09-29T01:45:25.256Z,94.89
2023-09-29T01:47:51.995Z,95.44
2023-09-29T01:50:22.364Z,95.23
2023-09-29T01:52:50.139Z,95.25
2023-09-29T01:55:21.191Z,95.10
2023-09-29T01:57:49.069Z,95.40
2023-09-29T02:00:20.738Z,96.82
2023-09-29T02:02:48.953Z,97.20
2023-09-29T02:05:19.682Z,97.99
2023-09-29T02:07:47.024Z,98.09
2023-09-29T02:10:14.538Z,98.32
2023-09-29T02:12:48.052Z,97.67
2023-09-29T02:15:18.596Z,97.61
2023-09-29T02:17:46.598Z,97.25
2023-09-29T02:20:18.392Z,96.62
2023-09-29T02:22:46.161Z,96.82
2023-09-29T02:25:15.974Z,96.05
2023-09-29T02:27:43.326Z,95.89
2023-09-29T02:30:11.385Z,95.94
2023-09-29T02:32:43.015Z,96.17
2023-09-29T02:35:11.793Z,94.57
2023-09-29T02:37:39.421Z,94.06
2023-09-29T02:40:14.379Z,93.41
2023-09-29T02:42:41.041Z,92.79
2023-09-29T02:45:08.566Z,91.84
2023-09-29T02:47:37.073Z,91.40
2023-09-29T02:50:05.629Z,91.33
2023-09-29T02:52:33.143Z,91.09
2023-09-29T02:55:00.345Z,91.48
2023-09-29T02:57:27.024Z,91.98
2023-09-29T02:59:53.587Z,92.43
2023-09-29T03:02:20.115Z,92.48
2023-09-29T03:04:48.244Z,92.91
2023-09-29T03:07:16.213Z,92.21
2023-09-29T03:09:43.110Z,91.52
2023-09-29T03:12:09.941Z,92.17
2023-09-29T03:14:37.323Z,92.01
2023-09-29T03:17:04.970Z,92.45
2023-09-29T03:19:32.285Z,93.79
2023-09-29T03:22:02.042Z,94.36
2023-09-29T03:24:30.776Z,94.26
2023-09-29T03:26:58.094Z,94.23
2023-09-29T03:29:24.960Z,94.38
2023-09-29T03:31:54.803Z,95.05
2023-09-29T03:34:22.161Z,94.73
2023-09-29T03:36:51.579Z,94.51
2023-09-29T03:39:19.660Z,94.45
2023-09-29T03:41:46.964Z,95.46
2023-09-29T03:44:13.754Z,94.85
2023-09-29T03:46:40.543Z,94.60
2023-09-29T03:49:07.093Z,94.74
2023-09-29T03:51:34.872Z,94.48
2023-09-29T03:54:01.550Z,95.42
2023-09-29T03:56:28.318Z,96.68
2023-09-29T03:58:55.337Z,96.61
2023-09-29T04:01:23.073Z,97.78
2023-09-29T04:03:49.836Z,98.39
2023-09-29T04:06:16.605Z,99.10
2023-09-29T04:08:43.195Z,99.91
2023-09-29T04:11:09.967Z,100.00
2023-09-29T04:13:36.590Z,100.00
2023-09-29T04:16:06.822Z,100.00
2023-09-29T04:18:34.009Z,100.00
2023-09-29T04:21:03.831Z,100.00
2023-09-29T04:23:30.502Z,100.00
2023-09-29T04:25:57.163Z,100.00
2023-09-29T04:28:23.811Z,100.00
2023-09-29T04:30:50.579Z,100.00
2023-09-29T04:33:17.325Z,100.00
2023-09-29T04:35:44.799Z,100.00
2023-09-29T04:38:11.955Z,100.00
2023-09-29T04:40:39.385Z,100.00
2023-09-29T04:43:06.867Z,100.00
2023-09-29T04:45:35.372Z,100.00
2023-09-29T04:48:03.191Z,100.00
2023-09-29T04:50:30.785Z,100.00
2023-09-29T04:52:57.883Z,100.00
2023-09-29T04:55:24.576Z,100.00
2023-09-29T04:57:53.721Z,100.00
2023-09-29T05:00:20.751Z,100.00
2023-09-29T05:02:47.802Z,100.00
2023-09-29T05:05:14.802Z,100.00
2023-09-29T05:07:44.519Z,100.00
2023-09-29T05:10:12.433Z,100.00
2023-09-29T05:12:39.175Z,100.00
2023-09-29T05:15:06.456Z,100.00
2023-09-29T05:17:48.367Z,100.00
2023-09-29T05:20:17.925Z,100.00
2023-09-29T05:22:44.494Z,100.00
2023-09-29T05:25:11.069Z,100.00
2023-09-29T05:27:37.584Z,100.00
2023-09-29T05:30:04.691Z,100.00
2023-09-29T05:32:32.479Z,100.00
2023-09-29T05:34:59.777Z,100.00
2023-09-29T05:37:26.356Z,100.00
2023-09-29T05:39:53.306Z,100.00
2023-09-29T05:42:30.485Z,100.00
2023-09-29T05:45:00.478Z,99.96
2023-09-29T05:47:27.297Z,98.82
2023-09-29T05:50:03.361Z,97.76
2023-09-29T05:52:37.912Z,98.15
2023-09-29T05:55:04.752Z,98.11
2023-09-29T05:57:31.434Z,98.31
2023-09-29T05:59:58.165Z,97.99
2023-09-29T06:02:24.827Z,97.61
2023-09-29T06:04:51.534Z,97.80
2023-09-29T06:07:18.388Z,97.02
2023-09-29T06:09:44.982Z,96.53
2023-09-29T06:12:11.697Z,95.50
2023-09-29T06:14:38.501Z,92.07
2023-09-29T06:17:05.131Z,91.13
2023-09-29T06:19:31.844Z,90.15
2023-09-29T06:21:58.366Z,88.96
2023-09-29T06:24:25.041Z,88.35
2023-09-29T06:26:51.658Z,87.51
2023-09-29T06:29:18.250Z,85.50
2023-09-29T06:31:45.529Z,84.42
2023-09-29T06:34:12.060Z,84.29
2023-09-29T06:36:38.563Z,83.90
2023-09-29T06:39:05.199Z,83.39
2023-09-29T06:41:31.823Z,83.64
2023-09-29T06:43:58.360Z,83.12
2023-09-29T06:46:24.937Z,82.55
2023-09-29T06:48:53.807Z,82.19
2023-09-29T06:51:20.421Z,82.08
2023-09-29T06:53:48.272Z,80.89
2023-09-29T06:56:17.020Z,81.53
2023-09-29T06:58:43.510Z,81.75
2023-09-29T07:01:10.040Z,80.63
2023-09-29T07:03:37.017Z,79.97
2023-09-29T07:06:04.667Z,80.24
2023-09-29T07:08:31.343Z,80.13
2023-09-29T07:10:58.662Z,80.32
2023-09-29T07:13:25.390Z,81.57
2023-09-29T07:15:51.967Z,81.48
2023-09-29T07:18:18.586Z,82.18
2023-09-29T07:20:45.289Z,79.85
2023-09-29T07:23:11.986Z,80.83
2023-09-29T07:25:40.504Z,82.04
2023-09-29T07:28:17.750Z,81.40
2023-09-29T07:30:45.928Z,81.38
2023-09-29T07:33:13.174Z,78.62
2023-09-29T07:35:40.863Z,78.19
2023-09-29T07:38:07.545Z,77.93
2023-09-29T07:40:36.265Z,76.04
2023-09-29T07:43:03.636Z,77.69
2023-09-29T07:45:30.394Z,78.06
2023-09-29T07:47:57.056Z,76.99
2023-09-29T07:50:24.272Z,75.18
2023-09-29T07:52:50.917Z,75.76
2023-09-29T07:55:17.458Z,75.66
2023-09-29T07:57:45.179Z,75.88
2023-09-29T08:00:14.171Z,75.32
2023-09-29T08:02:40.937Z,73.62
2023-09-29T08:05:10.703Z,72.20
2023-09-29T08:07:37.306Z,71.75
2023-09-29T08:10:04.212Z,73.05
2023-09-29T08:12:30.842Z,72.87
2023-09-29T08:14:57.509Z,72.58
2023-09-29T08:17:24.055Z,72.86
2023-09-29T08:19:50.682Z,73.35
2023-09-29T08:22:26.642Z,74.24
2023-09-29T08:25:02.519Z,74.25
2023-09-29T08:27:29.031Z,74.27
2023-09-29T08:29:56.070Z,75.00
2023-09-29T08:32:25.382Z,75.36
2023-09-29T08:34:52.040Z,74.21
2023-09-29T08:37:18.704Z,74.15
2023-09-29T08:39:45.334Z,71.71
2023-09-29T08:42:36.224Z,70.18
2023-09-29T08:45:04.555Z,70.24
2023-09-29T08:47:36.455Z,70.16
2023-09-29T08:50:05.569Z,71.63
2023-09-29T08:52:33.929Z,69.84
2023-09-29T08:55:01.436Z,69.37
2023-09-29T08:57:29.725Z,69.45
2023-09-29T08:59:57.017Z,70.11
2023-09-29T09:02:27.422Z,70.20
2023-09-29T09:04:54.440Z,70.08
2023-09-29T09:07:21.225Z,68.77
2023-09-29T09:09:54.516Z,69.19
2023-09-29T09:12:36.130Z,68.47
2023-09-29T09:15:06.049Z,67.64
2023-09-29T09:17:35.483Z,67.19
2023-09-29T09:20:03.530Z,66.48
2023-09-29T09:22:43.579Z,65.78
2023-09-29T09:25:14.162Z,64.65
2023-09-29T09:27:42.575Z,64.37
2023-09-29T09:30:23.399Z,64.54
2023-09-29T09:32:51.155Z,64.32
2023-09-29T09:35:25.721Z,63.63
2023-09-29T09:37:52.567Z,63.99
2023-09-29T09:40:21.033Z,63.48
2023-09-29T09:42:49.167Z,65.16
2023-09-29T09:45:15.669Z,65.22
2023-09-29T09:47:42.790Z,65.58
2023-09-29T09:50:15.376Z,67.06
2023-09-29T09:52:45.394Z,67.03
2023-09-29T09:55:16.410Z,67.30
2023-09-29T09:57:51.360Z,66.98
2023-09-29T10:00:18.187Z,67.32
2023-09-29T10:02:52.431Z,66.36
2023-09-29T10:05:24.797Z,67.45
2023-09-29T10:07:54.128Z,67.83
2023-09-29T10:10:35.693Z,68.87
2023-09-29T10:13:04.240Z,67.65
2023-09-29T10:15:31.721Z,67.52
2023-09-29T10:18:00.031Z,67.23
2023-09-29T10:20:30.378Z,65.85
2023-09-29T10:23:10.535Z,64.58
2023-09-29T10:25:38.684Z,63.58
2023-09-29T10:28:09.521Z,61.63
2023-09-29T10:30:36.858Z,60.58
2023-09-29T10:33:15.293Z,59.81
2023-09-29T10:35:47.278Z,59.97
2023-09-29T10:38:27.814Z,61.13
2023-09-29T10:40:54.567Z,61.81
2023-09-29T10:43:25.192Z,62.11
2023-09-29T10:45:53.032Z,62.23
2023-09-29T10:48:23.670Z,61.73
2023-09-29T10:50:51.956Z,62.45
2023-09-29T10:53:23.491Z,63.59
2023-09-29T10:55:53.250Z,63.74
2023-09-29T10:58:20.820Z,64.08
2023-09-29T11:00:50.399Z,63.92
2023-09-29T11:03:19.945Z,63.96
2023-09-29T11:05:55.243Z,64.75
2023-09-29T11:08:30.517Z,63.96
2023-09-29T11:11:03.932Z,64.26
2023-09-29T11:13:31.274Z,64.09
2023-09-29T11:16:00.246Z,63.53
2023-09-29T11:18:27.665Z,64.26
2023-09-29T11:20:54.357Z,65.35
2023-09-29T11:23:21.261Z,64.65
2023-09-29T11:25:55.768Z,64.60
2023-09-29T11:28:22.793Z,64.11
2023-09-29T11:30:49.875Z,64.16
2023-09-29T11:33:17.418Z,64.46
2023-09-29T11:36:03.096Z,64.10
2023-09-29T11:38:32.435Z,63.07
2023-09-29T11:40:59.147Z,60.54
2023-09-29T11:43:27.159Z,59.65
2023-09-29T11:45:54.209Z,58.47
2023-09-29T11:48:20.884Z,59.49
2023-09-29T11:50:47.673Z,59.37
2023-09-29T11:53:14.615Z,60.28
2023-09-29T11:55:41.144Z,60.66
2023-09-29T11:58:09.118Z,61.41
2023-09-29T12:00:36.980Z,61.71
2023-09-29T12:03:07.373Z,60.77
2023-09-29T12:05:39.290Z,61.02
2023-09-29T12:08:07.590Z,60.04
2023-09-29T12:10:34.221Z,60.77
2023-09-29T12:13:00.860Z,59.86
2023-09-29T12:15:27.624Z,60.71
2023-09-29T12:17:55.025Z,60.67
2023-09-29T12:20:23.023Z,60.72
2023-09-29T12:22:50.789Z,60.34
2023-09-29T12:25:18.286Z,60.23
2023-09-29T12:27:46.825Z,59.20
2023-09-29T12:30:13.908Z,58.31
2023-09-29T12:32:42.106Z,56.84
2023-09-29T12:35:16.260Z,56.47
2023-09-29T12:37:43.982Z,56.00
2023-09-29T12:40:16.729Z,56.73
2023-09-29T12:42:48.973Z,56.50
2023-09-29T12:45:19.135Z,57.45
2023-09-29T12:47:46.886Z,57.23
2023-09-29T12:50:13.734Z,57.28
2023-09-29T12:52:40.448Z,57.47
2023-09-29T12:55:07.809Z,57.09
2023-09-29T12:57:34.362Z,56.97
2023-09-29T13:00:01.342Z,57.42
2023-09-29T13:02:33.098Z,57.56
2023-09-29T13:05:00.316Z,57.71
2023-09-29T13:07:27.043Z,58.28
2023-09-29T13:09:53.898Z,57.40
2023-09-29T13:12:31.002Z,57.89
2023-09-29T13:15:00.232Z,58.55
2023-09-29T13:17:26.899Z,57.81
2023-09-29T13:19:53.417Z,59.16
2023-09-29T13:22:19.926Z,58.59
2023-09-29T13:24:47.838Z,58.60
2023-09-29T13:27:14.522Z,59.07
2023-09-29T13:29:41.060Z,59.11
2023-09-29T13:32:07.630Z,59.28
2023-09-29T13:34:34.239Z,59.70
2023-09-29T13:37:01.228Z,61.18
2023-09-29T13:39:29.116Z,61.14
2023-09-29T13:41:55.890Z,61.75
2023-09-29T13:44:22.631Z,61.85
2023-09-29T13:47:03.396Z,61.48
2023-09-29T13:49:30.804Z,61.35
2023-09-29T13:51:57.435Z,61.41
2023-09-29T13:54:23.957Z,62.30
2023-09-29T13:56:50.540Z,62.61
2023-09-29T13:59:17.336Z,63.00
2023-09-29T14:01:43.944Z,62.97
2023-09-29T14:04:10.647Z,63.64
2023-09-29T14:06:37.377Z,63.52
2023-09-29T14:09:16.017Z,64.30
2023-09-29T14:11:45.582Z,64.41
2023-09-29T14:14:12.417Z,64.21
2023-09-29T14:16:39.069Z,64.61
2023-09-29T14:19:05.960Z,65.54
2023-09-29T14:21:33.025Z,65.08
2023-09-29T14:24:01.090Z,65.60
2023-09-29T14:26:28.499Z,66.03
2023-09-29T14:28:56.622Z,65.31
2023-09-29T14:31:24.243Z,65.60
2023-09-29T14:33:53.091Z,66.46
2023-09-29T14:36:19.734Z,65.99
2023-09-29T14:38:46.637Z,65.91
2023-09-29T14:41:13.331Z,66.65
2023-09-29T14:43:45.784Z,67.65
2023-09-29T14:46:15.107Z,67.05
2023-09-29T14:48:42.072Z,68.08
2023-09-29T14:51:10.880Z,68.47
2023-09-29T14:53:37.965Z,68.51
2023-09-29T14:56:13.849Z,69.28
2023-09-29T14:58:40.491Z,69.55
2023-09-29T15:01:07.144Z,69.20
2023-09-29T15:03:34.120Z,69.71
2023-09-29T15:06:01.911Z,70.62
2023-09-29T15:08:32.136Z,70.58
2023-09-29T15:11:00.348Z,71.05
2023-09-29T15:13:27.188Z,70.88
2023-09-29T15:15:54.359Z,71.64
2023-09-29T15:18:22.075Z,72.12
2023-09-29T15:20:49.893Z,72.78
2023-09-29T15:23:16.916Z,73.31
2023-09-29T15:25:45.272Z,73.06
2023-09-29T15:28:14.627Z,73.16
2023-09-29T15:30:46.045Z,73.63
2023-09-29T15:33:14.124Z,73.83
2023-09-29T15:35:56.101Z,73.80
2023-09-29T15:38:24.426Z,74.13
2023-09-29T15:40:52.838Z,74.88
2023-09-29T15:43:20.713Z,74.05
2023-09-29T15:45:47.431Z,74.70
2023-09-29T15:48:14.206Z,75.02
2023-09-29T15:50:41.100Z,75.65
2023-09-29T15:53:07.608Z,74.93
2023-09-29T15:55:34.340Z,75.32
2023-09-29T15:58:01.563Z,75.65
2023-09-29T16:00:28.446Z,75.46
2023-09-29T16:02:55.588Z,75.82
2023-09-29T16:05:22.293Z,76.00
2023-09-29T16:07:49.061Z,76.51
2023-09-29T16:10:19.576Z,76.82
2023-09-29T16:12:46.751Z,76.61
2023-09-29T16:15:15.065Z,77.14
2023-09-29T16:17:44.292Z,77.71
2023-09-29T16:20:11.516Z,77.46
2023-09-29T16:22:39.030Z,78.14
2023-09-29T16:25:06.614Z,78.43
2023-09-29T16:27:33.646Z,79.03
2023-09-29T16:30:00.516Z,78.69
2023-09-29T16:32:32.404Z,78.69
2023-09-29T16:35:03.539Z,78.51
2023-09-29T16:37:31.406Z,80.07
2023-09-29T16:39:58.028Z,79.89
2023-09-29T16:42:24.631Z,79.60
2023-09-29T16:44:54.157Z,79.93
2023-09-29T16:47:20.730Z,80.32
2023-09-29T16:49:48.976Z,80.58
2023-09-29T16:52:15.706Z,81.17
2023-09-29T16:54:44.303Z,81.50
2023-09-29T16:57:11.647Z,81.08
2023-09-29T16:59:38.441Z,81.87
2023-09-29T17:02:05.103Z,81.85
2023-09-29T17:04:40.839Z,82.05
2023-09-29T17:07:07.625Z,82.31
2023-09-29T17:09:34.177Z,81.83
2023-09-29T17:12:00.834Z,82.91
2023-09-29T17:14:27.553Z,82.76
2023-09-29T17:16:55.697Z,82.99
2023-09-29T17:19:22.408Z,83.16
2023-09-29T17:21:49.042Z,83.78
2023-09-29T17:24:15.676Z,84.30
2023-09-29T17:26:42.222Z,84.19
2023-09-29T17:29:09.440Z,85.10
2023-09-29T17:31:36.097Z,84.62
2023-09-29T17:34:02.770Z,84.48
2023-09-29T17:36:29.367Z,85.16
2023-09-29T17:38:56.217Z,85.04
2023-09-29T17:41:23.009Z,85.03
2023-09-29T17:43:49.509Z,85.20
2023-09-29T17:46:16.399Z,85.87
2023-09-29T17:48:54.988Z,86.27
2023-09-29T17:51:21.784Z,86.84
2023-09-29T17:53:48.449Z,86.74
2023-09-29T17:56:15.131Z,86.78
2023-09-29T17:58:42.022Z,87.31
2023-09-29T18:01:12.056Z,87.04
2023-09-29T18:03:40.120Z,88.59
2023-09-29T18:06:06.842Z,88.11
2023-09-29T18:08:33.473Z,87.52
2023-09-29T18:11:00.107Z,87.00
2023-09-29T18:13:26.699Z,84.66
2023-09-29T18:15:53.437Z,84.71
2023-09-29T18:18:20.248Z,84.81
2023-09-29T18:20:46.998Z,85.13
2023-09-29T18:23:14.470Z,85.31
2023-09-29T18:25:41.099Z,85.62
2023-09-29T18:28:07.775Z,85.82
2023-09-29T18:30:36.931Z,85.54
2023-09-29T18:33:03.894Z,86.13
2023-09-29T18:35:31.456Z,86.55
2023-09-29T18:37:57.997Z,86.23
2023-09-29T18:40:24.632Z,85.56
2023-09-29T18:42:51.558Z,84.99
2023-09-29T18:45:18.238Z,85.24
2023-09-29T18:47:45.526Z,85.28
2023-09-29T18:50:13.158Z,86.16
2023-09-29T18:52:42.028Z,86.10
2023-09-29T18:55:09.308Z,86.23
2023-09-29T18:57:35.924Z,86.93
2023-09-29T19:00:02.879Z,87.22
2023-09-29T19:02:29.866Z,87.74
2023-09-29T19:04:56.580Z,87.61
2023-09-29T19:07:23.104Z,87.77
2023-09-29T19:09:49.846Z,88.31
2023-09-29T19:12:16.517Z,88.35
2023-09-29T19:14:43.960Z,88.63
2023-09-29T19:17:10.623Z,89.61
2023-09-29T19:19:37.265Z,88.90
2023-09-29T19:22:04.313Z,89.00
2023-09-29T19:24:30.890Z,89.91
2023-09-29T19:26:57.556Z,90.29
2023-09-29T19:29:24.305Z,89.52
2023-09-29T19:31:51.036Z,90.44
2023-09-29T19:34:17.688Z,91.13
2023-09-29T19:36:44.352Z,91.62
2023-09-29T19:39:11.081Z,91.40
2023-09-29T19:41:37.888Z,90.79
2023-09-29T19:44:04.857Z,91.89
2023-09-29T19:46:35.490Z,92.85
2023-09-29T19:49:04.976Z,92.69
2023-09-29T19:51:31.777Z,92.72
2023-09-29T19:53:59.631Z,92.35
2023-09-29T19:56:32.980Z,93.02
2023-09-29T19:58:59.544Z,92.40
2023-09-29T20:01:26.527Z,92.22
2023-09-29T20:03:53.090Z,92.66
2023-09-29T20:06:19.714Z,92.18
2023-09-29T20:08:49.464Z,92.67
2023-09-29T20:11:17.515Z,93.12
2023-09-29T20:13:43.986Z,92.97
2023-09-29T20:16:10.534Z,93.96
2023-09-29T20:18:37.192Z,92.82
2023-09-29T20:21:04.168Z,93.16
2023-09-29T20:23:30.797Z,92.74
2023-09-29T20:25:59.317Z,92.55
2023-09-29T20:28:27.475Z,92.13
2023-09-29T20:30:54.818Z,91.67
2023-09-29T20:33:22.872Z,91.31
2023-09-29T20:35:49.716Z,91.05
2023-09-29T20:38:16.249Z,90.97
2023-09-29T20:40:44.372Z,91.43
2023-09-29T20:43:15.146Z,91.37
2023-09-29T20:45:46.614Z,91.24
2023-09-29T20:48:14.188Z,91.71
2023-09-29T20:50:41.133Z,91.63
2023-09-29T20:53:09.672Z,91.71
2023-09-29T20:55:36.223Z,92.40
2023-09-29T20:58:02.785Z,93.37
2023-09-29T21:00:29.365Z,93.77
2023-09-29T21:02:55.936Z,93.15
2023-09-29T21:05:22.823Z,93.37
2023-09-29T21:07:49.503Z,93.09
2023-09-29T21:10:16.346Z,94.11
2023-09-29T21:12:42.871Z,94.20
2023-09-29T21:15:10.090Z,93.75
2023-09-29T21:17:37.155Z,94.30
2023-09-29T21:20:06.567Z,94.79
2023-09-29T21:22:33.102Z,95.70
2023-09-29T21:25:00.193Z,97.70
2023-09-29T21:27:26.883Z,98.59
2023-09-29T21:29:53.381Z,99.14
2023-09-29T21:32:19.885Z,100.00
2023-09-29T21:34:46.414Z,100.00
2023-09-29T21:37:13.020Z,100.00
2023-09-29T21:39:39.795Z,100.00
2023-09-29T21:42:06.495Z,100.00
2023-09-29T21:44:33.022Z,100.00
2023-09-29T21:46:59.531Z,100.00
2023-09-29T21:49:26.079Z,100.00
2023-09-29T21:51:52.587Z,100.00
2023-09-29T21:54:19.257Z,100.00
2023-09-29T21:56:45.781Z,100.00
2023-09-29T21:59:12.649Z,100.00
2023-09-29T22:01:41.501Z,100.00
2023-09-29T22:04:08.269Z,100.00
2023-09-29T22:06:35.258Z,100.00
2023-09-29T22:09:02.176Z,100.00
2023-09-29T22:11:28.792Z,100.00
2023-09-29T22:13:55.701Z,100.00
2023-09-29T22:16:22.625Z,100.00
2023-09-29T22:18:49.322Z,100.00
2023-09-29T22:21:21.337Z,100.00
2023-09-29T22:23:48.256Z,100.00
2023-09-29T22:26:29.138Z,100.00
2023-09-29T22:28:57.445Z,100.00
2023-09-29T22:31:24.652Z,100.00
2023-09-29T22:33:52.042Z,100.00
2023-09-29T22:36:18.716Z,100.00
2023-09-29T22:38:45.394Z,100.00
2023-09-29T22:41:15.952Z,100.00
2023-09-29T22:43:42.923Z,100.00
2023-09-29T22:46:09.760Z,100.00
2023-09-29T22:48:36.343Z,100.00
2023-09-29T22:51:03.645Z,100.00
2023-09-29T22:53:30.314Z,100.00
2023-09-29T22:55:59.541Z,100.00
2023-09-29T22:58:27.580Z,100.00
2023-09-29T23:00:54.942Z,100.00
2023-09-29T23:03:21.882Z,100.00
2023-09-29T23:05:48.594Z,100.00
2023-09-29T23:08:16.580Z,100.00
2023-09-29T23:10:46.009Z,100.00
2023-09-29T23:13:12.569Z,100.00
2023-09-29T23:15:40.190Z,100.00
2023-09-29T23:18:08.058Z,100.00
2023-09-29T23:20:34.723Z,100.00
2023-09-29T23:23:03.037Z,100.00
2023-09-29T23:25:29.867Z,100.00
2023-09-29T23:27:56.781Z,100.00
2023-09-29T23:30:23.412Z,100.00
2023-09-29T23:32:52.167Z,100.00
2023-09-29T23:35:19.022Z,100.00
2023-09-29T23:37:48.666Z,100.00
2023-09-29T23:40:18.942Z,100.00
2023-09-29T23:42:46.410Z,100.00
2023-09-29T23:45:13.094Z,100.00
2023-09-29T23:47:39.843Z,100.00
2023-09-29T23:50:07.648Z,100.00
2023-09-29T23:52:34.330Z,100.00
2023-09-29T23:55:01.146Z,100.00
2023-09-29T23:57:27.872Z,100.00
2023-09-29T23:59:54.726Z,100.00
